createdAt,value
2023-04-27T00:01:12.746Z,11.64
2023-04-27T00:03:46.132Z,11.59
2023-04-27T00:06:18.945Z,11.50
2023-04-27T00:08:52.262Z,11.44
2023-04-27T00:11:24.373Z,11.38
2023-04-27T00:13:57.146Z,11.34
2023-04-27T00:16:30.162Z,11.31
2023-04-27T00:19:02.537Z,11.33
2023-04-27T00:21:34.700Z,11.35
2023-04-27T00:24:07.298Z,11.35
2023-04-27T00:26:39.716Z,11.34
2023-04-27T00:29:12.041Z,11.31
2023-04-27T00:31:44.500Z,11.31
2023-04-27T00:34:16.819Z,11.33
2023-04-27T00:36:51.036Z,11.34
2023-04-27T00:39:24.517Z,11.35
2023-04-27T00:41:56.597Z,11.32
2023-04-27T00:44:29.485Z,11.28
2023-04-27T00:47:05.263Z,11.23
2023-04-27T00:49:38.157Z,11.19
2023-04-27T00:52:10.348Z,11.14
2023-04-27T00:54:43.302Z,11.10
2023-04-27T00:57:16.534Z,11.03
2023-04-27T00:59:49.284Z,10.98
2023-04-27T01:02:22.180Z,10.92
2023-04-27T01:04:55.214Z,10.87
2023-04-27T01:07:28.126Z,10.83
2023-04-27T01:10:00.520Z,10.80
2023-04-27T01:12:33.946Z,10.75
2023-04-27T01:15:07.843Z,10.75
2023-04-27T01:17:40.073Z,10.73
2023-04-27T01:20:12.708Z,10.75
2023-04-27T01:22:44.691Z,10.75
2023-04-27T01:25:16.810Z,10.79
2023-04-27T01:27:50.338Z,10.81
2023-04-27T01:30:26.245Z,10.84
2023-04-27T01:32:58.602Z,10.88
2023-04-27T01:35:31.840Z,10.91
2023-04-27T01:38:04.605Z,10.94
2023-04-27T01:40:36.725Z,10.93
2023-04-27T01:43:08.990Z,10.92
2023-04-27T01:45:41.179Z,10.88
2023-04-27T01:48:13.586Z,10.82
2023-04-27T01:50:47.529Z,10.78
2023-04-27T01:53:19.538Z,10.74
2023-04-27T01:55:53.016Z,10.73
2023-04-27T01:58:25.240Z,10.70
2023-04-27T02:00:58.078Z,10.68
2023-04-27T02:03:30.448Z,10.65
2023-04-27T02:06:02.774Z,10.63
2023-04-27T02:08:36.144Z,10.58
2023-04-27T02:11:08.502Z,10.56
2023-04-27T02:13:41.045Z,10.57
2023-04-27T02:16:13.243Z,10.57
2023-04-27T02:18:45.247Z,10.57
2023-04-27T02:21:17.442Z,10.57
2023-04-27T02:23:50.710Z,10.60
2023-04-27T02:26:25.530Z,10.65
2023-04-27T02:28:57.832Z,10.70
2023-04-27T02:31:30.360Z,10.76
2023-04-27T02:34:03.025Z,10.82
2023-04-27T02:36:35.160Z,10.90
2023-04-27T02:39:07.234Z,10.96
2023-04-27T02:41:40.937Z,11.02
2023-04-27T02:44:13.073Z,11.08
2023-04-27T02:46:45.401Z,11.18
2023-04-27T02:49:18.040Z,11.25
2023-04-27T02:51:50.178Z,11.35
2023-04-27T02:54:22.686Z,11.43
2023-04-27T02:56:54.828Z,11.53
2023-04-27T02:59:27.144Z,11.61
2023-04-27T03:01:59.291Z,11.65
2023-04-27T03:04:31.810Z,11.72
2023-04-27T03:07:04.946Z,11.77
2023-04-27T03:09:37.928Z,11.86
2023-04-27T03:12:10.086Z,11.94
2023-04-27T03:14:42.218Z,12.04
2023-04-27T03:17:14.515Z,12.13
2023-04-27T03:19:49.303Z,12.24
2023-04-27T03:22:21.556Z,12.33
2023-04-27T03:24:53.624Z,12.44
2023-04-27T03:27:25.873Z,12.54
2023-04-27T03:29:58.090Z,12.66
2023-04-27T03:32:30.278Z,12.78
2023-04-27T03:35:03.398Z,12.89
2023-04-27T03:37:35.795Z,12.99
2023-04-27T03:40:08.945Z,13.12
2023-04-27T03:42:41.304Z,13.24
2023-04-27T03:45:13.946Z,13.34
2023-04-27T03:47:46.893Z,13.49
2023-04-27T03:50:19.918Z,13.60
2023-04-27T03:52:53.093Z,13.72
2023-04-27T03:55:26.051Z,13.92
2023-04-27T03:57:58.202Z,13.94
2023-04-27T04:00:30.324Z,14.02
2023-04-27T04:03:02.728Z,14.10
2023-04-27T04:05:35.310Z,14.20
2023-04-27T04:08:07.519Z,14.28
2023-04-27T04:10:39.648Z,14.38
2023-04-27T04:13:12.908Z,14.49
2023-04-27T04:15:45.658Z,14.60
2023-04-27T04:18:17.955Z,14.71
2023-04-27T04:20:50.508Z,14.81
2023-04-27T04:23:23.012Z,14.91
2023-04-27T04:25:57.430Z,15.01
2023-04-27T04:28:31.886Z,15.11
2023-04-27T04:31:05.876Z,15.22
2023-04-27T04:33:38.968Z,15.34
2023-04-27T04:36:11.658Z,15.45
2023-04-27T04:38:44.044Z,15.54
2023-04-27T04:41:16.856Z,15.63
2023-04-27T04:43:50.057Z,15.74
2023-04-27T04:46:24.392Z,15.97
2023-04-27T04:48:56.583Z,15.97
2023-04-27T04:51:28.890Z,16.19
2023-04-27T04:54:02.159Z,16.19
2023-04-27T04:56:34.527Z,16.33
2023-04-27T04:59:07.551Z,16.46
2023-04-27T05:01:39.674Z,16.54
2023-04-27T05:04:12.308Z,16.68
2023-04-27T05:06:44.991Z,16.68
2023-04-27T05:09:17.798Z,16.81
2023-04-27T05:11:49.924Z,16.93
2023-04-27T05:14:22.183Z,17.10
2023-04-27T05:16:54.699Z,17.06
2023-04-27T05:19:27.267Z,17.21
2023-04-27T05:22:00.202Z,17.26
2023-04-27T05:24:32.921Z,17.33
2023-04-27T05:27:05.549Z,17.25
2023-04-27T05:29:37.603Z,17.41
2023-04-27T05:32:10.192Z,17.48
2023-04-27T05:34:44.371Z,17.50
2023-04-27T05:37:17.177Z,17.53
2023-04-27T05:39:49.750Z,17.58
2023-04-27T05:42:22.225Z,17.52
2023-04-27T05:44:54.349Z,17.72
2023-04-27T05:47:27.296Z,17.78
2023-04-27T05:49:59.684Z,17.85
2023-04-27T05:52:34.172Z,17.92
2023-04-27T05:55:08.513Z,18.02
2023-04-27T05:57:41.578Z,18.12
2023-04-27T06:00:15.388Z,18.24
2023-04-27T06:02:48.371Z,18.36
2023-04-27T06:05:20.921Z,18.58
2023-04-27T06:07:53.278Z,19.06
2023-04-27T06:10:25.809Z,19.65
2023-04-27T06:12:59.080Z,20.25
2023-04-27T06:15:31.360Z,20.88
2023-04-27T06:18:03.747Z,21.44
2023-04-27T06:20:36.643Z,22.12
2023-04-27T06:23:09.298Z,22.63
2023-04-27T06:25:41.929Z,23.16
2023-04-27T06:28:14.070Z,23.51
2023-04-27T06:30:46.629Z,24.19
2023-04-27T06:33:18.625Z,24.76
2023-04-27T06:35:51.329Z,25.00
2023-04-27T06:38:23.765Z,24.64
2023-04-27T06:40:56.518Z,24.26
2023-04-27T06:43:29.133Z,24.22
2023-04-27T06:46:03.600Z,24.53
2023-04-27T06:48:35.852Z,25.05
2023-04-27T06:51:08.263Z,25.33
2023-04-27T06:53:41.352Z,25.31
2023-04-27T06:56:13.979Z,25.12
2023-04-27T06:58:46.536Z,24.80
2023-04-27T07:01:18.684Z,24.30
2023-04-27T07:03:51.339Z,23.83
2023-04-27T07:06:25.745Z,23.27
2023-04-27T07:08:58.081Z,22.83
2023-04-27T07:11:30.375Z,22.50
2023-04-27T07:14:02.717Z,22.18
2023-04-27T07:16:35.124Z,21.94
2023-04-27T07:19:07.330Z,21.74
2023-04-27T07:21:39.932Z,21.56
2023-04-27T07:24:12.424Z,21.45
2023-04-27T07:26:44.737Z,21.37
2023-04-27T07:29:26.208Z,21.33
2023-04-27T07:31:53.306Z,21.25
2023-04-27T07:34:26.056Z,21.22
2023-04-27T07:36:58.842Z,21.14
2023-04-27T07:39:31.385Z,21.04
2023-04-27T07:42:05.969Z,20.98
2023-04-27T07:44:38.314Z,21.01
2023-04-27T07:47:10.854Z,21.00
2023-04-27T07:49:44.607Z,20.97
2023-04-27T07:52:17.245Z,21.00
2023-04-27T07:54:49.773Z,21.03
2023-04-27T07:57:22.195Z,21.06
2023-04-27T07:59:54.837Z,21.14
2023-04-27T08:02:32.336Z,21.17
2023-04-27T08:05:05.373Z,21.22
2023-04-27T08:07:44.168Z,21.27
2023-04-27T08:10:12.137Z,21.34
2023-04-27T08:12:44.934Z,21.41
2023-04-27T08:15:17.243Z,21.50
2023-04-27T08:17:49.468Z,21.60
2023-04-27T08:20:21.778Z,21.67
2023-04-27T08:22:54.339Z,21.75
2023-04-27T08:25:26.477Z,21.81
2023-04-27T08:27:58.755Z,21.84
2023-04-27T08:30:31.316Z,21.82
2023-04-27T08:33:03.982Z,21.83
2023-04-27T08:35:36.778Z,21.84
2023-04-27T08:38:09.320Z,21.86
2023-04-27T08:40:45.327Z,21.89
2023-04-27T08:43:17.683Z,21.92
2023-04-27T08:45:51.052Z,21.96
2023-04-27T08:48:23.807Z,22.05
2023-04-27T08:50:57.720Z,22.02
2023-04-27T08:53:30.538Z,22.08
2023-04-27T08:56:02.852Z,22.17
2023-04-27T08:58:38.846Z,22.22
2023-04-27T09:01:11.669Z,22.25
2023-04-27T09:03:45.990Z,22.30
2023-04-27T09:06:19.110Z,22.31
2023-04-27T09:08:52.307Z,22.38
2023-04-27T09:11:34.043Z,22.38
2023-04-27T09:14:17.871Z,22.37
2023-04-27T09:16:59.710Z,22.39
2023-04-27T09:19:32.464Z,22.23
2023-04-27T09:22:07.547Z,22.08
2023-04-27T09:24:39.888Z,22.02
2023-04-27T09:27:15.101Z,21.96
2023-04-27T09:29:47.408Z,21.95
2023-04-27T09:32:21.251Z,21.94
2023-04-27T09:34:53.496Z,21.97
2023-04-27T09:37:27.313Z,22.03
2023-04-27T09:40:00.236Z,22.12
2023-04-27T09:42:33.551Z,22.23
2023-04-27T09:45:07.774Z,22.51
2023-04-27T09:47:40.909Z,22.49
2023-04-27T09:50:17.434Z,22.66
2023-04-27T09:52:49.842Z,22.94
2023-04-27T09:55:27.653Z,23.24
2023-04-27T09:58:22.088Z,23.41
2023-04-27T10:01:28.893Z,23.42
2023-04-27T10:04:23.520Z,23.44
2023-04-27T10:07:10.101Z,23.48
2023-04-27T10:09:44.827Z,23.65
2023-04-27T10:12:31.472Z,23.94
2023-04-27T10:15:15.052Z,24.14
2023-04-27T10:17:53.320Z,24.32
2023-04-27T10:20:34.096Z,24.24
2023-04-27T10:23:06.760Z,24.23
2023-04-27T10:25:41.391Z,24.39
2023-04-27T10:28:21.377Z,24.86
2023-04-27T10:30:55.157Z,25.19
2023-04-27T10:33:27.948Z,25.35
2023-04-27T10:36:01.125Z,25.37
2023-04-27T10:38:33.498Z,25.35
2023-04-27T10:41:06.256Z,25.27
2023-04-27T10:43:39.119Z,25.08
2023-04-27T10:46:13.215Z,24.90
2023-04-27T10:48:46.532Z,24.72
2023-04-27T10:51:18.503Z,24.79
2023-04-27T10:53:55.290Z,24.24
2023-04-27T10:56:28.562Z,24.10
2023-04-27T10:59:06.364Z,23.94
2023-04-27T11:01:39.072Z,23.82
2023-04-27T11:04:11.684Z,23.74
2023-04-27T11:06:46.850Z,23.61
2023-04-27T11:09:29.372Z,23.28
2023-04-27T11:12:01.916Z,22.96
2023-04-27T11:14:35.590Z,22.77
2023-04-27T11:17:09.531Z,22.94
2023-04-27T11:19:48.723Z,23.42
2023-04-27T11:22:21.153Z,23.88
2023-04-27T11:24:54.839Z,24.44
2023-04-27T11:27:30.767Z,24.58
2023-04-27T11:30:03.067Z,24.50
2023-04-27T11:32:35.599Z,24.37
2023-04-27T11:35:09.597Z,24.23
2023-04-27T11:37:42.586Z,24.08
2023-04-27T11:40:19.253Z,24.04
2023-04-27T11:43:03.732Z,23.99
2023-04-27T11:45:36.004Z,24.15
2023-04-27T11:48:08.349Z,24.34
2023-04-27T11:50:40.602Z,24.55
2023-04-27T11:53:12.584Z,24.97
2023-04-27T11:55:45.194Z,25.51
2023-04-27T11:58:17.938Z,25.97
2023-04-27T12:00:50.418Z,26.19
2023-04-27T12:03:22.733Z,26.41
2023-04-27T12:05:55.982Z,27.20
2023-04-27T12:08:28.787Z,28.66
2023-04-27T12:11:01.093Z,30.23
2023-04-27T12:13:33.313Z,30.53
2023-04-27T12:16:05.720Z,30.82
2023-04-27T12:18:38.177Z,31.93
2023-04-27T12:21:11.144Z,33.34
2023-04-27T12:23:44.223Z,34.89
2023-04-27T12:26:16.780Z,36.11
2023-04-27T12:28:50.943Z,37.23
2023-04-27T12:31:27.581Z,37.97
2023-04-27T12:33:59.465Z,38.65
2023-04-27T12:36:32.802Z,39.24
2023-04-27T12:39:16.703Z,39.60
2023-04-27T12:41:51.294Z,39.93
2023-04-27T12:44:24.995Z,39.88
2023-04-27T12:46:57.582Z,40.05
2023-04-27T12:49:30.104Z,40.47
2023-04-27T12:52:02.692Z,41.05
2023-04-27T12:54:35.373Z,41.38
2023-04-27T12:57:07.644Z,41.77
2023-04-27T12:59:41.704Z,42.16
2023-04-27T13:02:14.492Z,42.34
2023-04-27T13:04:47.145Z,42.88
2023-04-27T13:07:20.017Z,43.31
2023-04-27T13:09:54.693Z,43.64
2023-04-27T13:12:28.199Z,43.97
2023-04-27T13:15:00.604Z,44.16
2023-04-27T13:17:34.529Z,44.35
2023-04-27T13:20:07.754Z,44.16
2023-04-27T13:22:40.919Z,43.72
2023-04-27T13:25:13.332Z,43.47
2023-04-27T13:27:45.826Z,43.10
2023-04-27T13:30:18.312Z,42.98
2023-04-27T13:32:50.646Z,43.23
2023-04-27T13:35:24.168Z,43.17
2023-04-27T13:37:57.048Z,43.23
2023-04-27T13:40:30.817Z,41.43
2023-04-27T13:43:03.517Z,39.07
2023-04-27T13:45:36.206Z,36.87
2023-04-27T13:48:08.911Z,34.76
2023-04-27T13:50:41.095Z,33.07
2023-04-27T13:53:13.308Z,31.84
2023-04-27T13:55:46.371Z,32.79
2023-04-27T13:58:18.583Z,34.58
2023-04-27T14:00:53.038Z,36.01
2023-04-27T14:03:25.816Z,36.29
2023-04-27T14:05:58.587Z,37.24
2023-04-27T14:08:31.035Z,37.84
2023-04-27T14:11:03.380Z,37.59
2023-04-27T14:13:35.750Z,35.96
2023-04-27T14:16:09.253Z,34.32
2023-04-27T14:18:41.456Z,34.33
2023-04-27T14:21:13.941Z,35.42
2023-04-27T14:23:46.901Z,36.96
2023-04-27T14:26:19.314Z,38.08
2023-04-27T14:28:52.090Z,38.78
2023-04-27T14:31:25.057Z,39.25
2023-04-27T14:33:57.841Z,39.43
2023-04-27T14:36:30.260Z,39.31
2023-04-27T14:39:04.282Z,39.30
2023-04-27T14:41:37.286Z,39.32
2023-04-27T14:44:09.757Z,40.46
2023-04-27T14:46:42.238Z,39.28
2023-04-27T14:49:15.197Z,38.99
2023-04-27T14:51:47.690Z,38.76
2023-04-27T14:54:20.138Z,38.49
2023-04-27T14:56:53.006Z,38.06
2023-04-27T14:59:25.785Z,36.82
2023-04-27T15:01:58.192Z,34.82
2023-04-27T15:04:31.235Z,32.78
2023-04-27T15:07:03.873Z,31.02
2023-04-27T15:09:36.442Z,29.55
2023-04-27T15:12:08.661Z,28.28
2023-04-27T15:14:41.347Z,27.31
2023-04-27T15:17:14.409Z,26.54
2023-04-27T15:19:46.883Z,25.92
2023-04-27T15:22:18.842Z,25.41
2023-04-27T15:24:51.350Z,24.96
2023-04-27T15:27:24.426Z,24.63
2023-04-27T15:29:56.887Z,24.31
2023-04-27T15:32:30.527Z,24.06
2023-04-27T15:35:02.872Z,23.76
2023-04-27T15:37:37.411Z,23.55
2023-04-27T15:40:10.806Z,23.36
2023-04-27T15:42:43.759Z,23.22
2023-04-27T15:45:15.884Z,23.11
2023-04-27T15:47:48.293Z,22.94
2023-04-27T15:50:20.976Z,22.82
2023-04-27T15:52:54.227Z,22.69
2023-04-27T15:55:26.718Z,22.55
2023-04-27T15:57:59.053Z,22.42
2023-04-27T16:00:31.576Z,22.34
2023-04-27T16:03:04.090Z,22.21
2023-04-27T16:05:37.135Z,22.14
2023-04-27T16:08:09.194Z,21.99
2023-04-27T16:10:41.840Z,21.88
2023-04-27T16:13:14.653Z,21.76
2023-04-27T16:15:47.032Z,21.63
2023-04-27T16:18:19.112Z,21.51
2023-04-27T16:20:51.712Z,21.44
2023-04-27T16:23:24.524Z,21.33
2023-04-27T16:25:56.932Z,21.17
2023-04-27T16:28:29.825Z,21.01
2023-04-27T16:31:02.154Z,20.86
2023-04-27T16:33:34.855Z,20.70
2023-04-27T16:36:07.851Z,20.57
2023-04-27T16:38:40.104Z,20.45
2023-04-27T16:41:16.778Z,20.34
2023-04-27T16:43:51.259Z,20.24
2023-04-27T16:46:23.514Z,20.14
2023-04-27T16:48:58.626Z,20.01
2023-04-27T16:51:31.253Z,19.93
2023-04-27T16:54:03.850Z,19.80
2023-04-27T16:56:37.343Z,19.67
2023-04-27T16:59:11.328Z,19.55
2023-04-27T17:01:43.798Z,19.44
2023-04-27T17:04:16.460Z,19.41
2023-04-27T17:06:49.286Z,19.30
2023-04-27T17:09:22.174Z,19.19
2023-04-27T17:11:54.718Z,19.12
2023-04-27T17:14:27.118Z,19.05
2023-04-27T17:17:00.967Z,18.98
2023-04-27T17:19:33.226Z,18.94
2023-04-27T17:22:07.762Z,18.86
2023-04-27T17:24:40.357Z,18.77
2023-04-27T17:27:13.489Z,18.71
2023-04-27T17:29:46.729Z,18.75
2023-04-27T17:32:19.490Z,18.75
2023-04-27T17:34:52.690Z,18.79
2023-04-27T17:37:26.986Z,18.83
2023-04-27T17:40:01.997Z,18.87
2023-04-27T17:42:35.284Z,18.88
2023-04-27T17:45:10.415Z,18.86
2023-04-27T17:47:46.936Z,18.79
2023-04-27T17:50:19.998Z,18.73
2023-04-27T17:52:54.160Z,18.75
2023-04-27T17:55:27.451Z,18.72
2023-04-27T17:58:04.377Z,18.70
2023-04-27T18:00:39.300Z,18.62
2023-04-27T18:03:21.745Z,18.55
2023-04-27T18:05:58.102Z,18.48
2023-04-27T18:08:31.320Z,18.45
2023-04-27T18:11:04.246Z,18.38
2023-04-27T18:13:40.287Z,18.34
2023-04-27T18:16:25.668Z,18.32
2023-04-27T18:19:00.524Z,18.27
2023-04-27T18:21:33.974Z,18.23
2023-04-27T18:24:10.420Z,18.21
2023-04-27T18:26:44.246Z,18.19
2023-04-27T18:29:17.860Z,18.12
2023-04-27T18:31:51.391Z,18.07
2023-04-27T18:34:24.106Z,18.07
2023-04-27T18:36:56.782Z,18.00
2023-04-27T18:39:29.318Z,18.03
2023-04-27T18:42:01.854Z,18.04
2023-04-27T18:44:35.605Z,17.97
2023-04-27T18:47:10.327Z,17.96
2023-04-27T18:49:43.137Z,17.91
2023-04-27T18:52:15.795Z,17.89
2023-04-27T18:54:49.424Z,17.85
2023-04-27T18:57:23.409Z,17.83
2023-04-27T19:00:09.312Z,17.87
2023-04-27T19:02:46.262Z,17.85
2023-04-27T19:05:20.741Z,17.90
2023-04-27T19:08:03.597Z,17.95
2023-04-27T19:10:37.949Z,18.04
2023-04-27T19:13:18.314Z,18.11
2023-04-27T19:15:51.901Z,18.20
2023-04-27T19:18:27.201Z,18.25
2023-04-27T19:21:00.577Z,18.30
2023-04-27T19:23:33.713Z,18.31
2023-04-27T19:26:13.100Z,18.34
2023-04-27T19:28:46.216Z,18.33
2023-04-27T19:31:21.937Z,18.32
2023-04-27T19:34:04.070Z,18.30
2023-04-27T19:36:35.185Z,18.34
2023-04-27T19:39:11.207Z,18.32
2023-04-27T19:41:46.352Z,18.34
2023-04-27T19:44:22.681Z,18.31
2023-04-27T19:46:59.027Z,18.26
2023-04-27T19:49:35.495Z,18.27
2023-04-27T19:52:09.963Z,18.28
2023-04-27T19:54:48.534Z,18.29
2023-04-27T19:57:22.690Z,18.32
2023-04-27T19:59:57.216Z,18.29
2023-04-27T20:02:30.761Z,18.31
2023-04-27T20:05:04.824Z,18.28
2023-04-27T20:07:37.821Z,18.24
2023-04-27T20:10:12.724Z,18.19
2023-04-27T20:12:56.087Z,18.19
2023-04-27T20:15:20.638Z,18.15
2023-04-27T20:17:53.471Z,18.14
2023-04-27T20:20:26.036Z,18.15
2023-04-27T20:22:58.493Z,18.17
2023-04-27T20:25:31.187Z,18.14
2023-04-27T20:28:03.468Z,18.15
2023-04-27T20:30:35.746Z,18.10
2023-04-27T20:33:08.106Z,18.04
2023-04-27T20:35:41.363Z,18.01
2023-04-27T20:38:14.034Z,17.98
2023-04-27T20:40:46.518Z,17.92
2023-04-27T20:43:19.047Z,17.85
2023-04-27T20:45:51.369Z,17.82
2023-04-27T20:48:24.121Z,17.81
2023-04-27T20:50:57.220Z,17.76
2023-04-27T20:53:29.848Z,17.75
2023-04-27T20:56:02.697Z,17.63
2023-04-27T20:58:34.982Z,17.53
2023-04-27T21:01:07.260Z,17.40
2023-04-27T21:03:39.685Z,17.32
2023-04-27T21:06:11.895Z,17.21
2023-04-27T21:08:44.008Z,17.14
2023-04-27T21:11:18.140Z,17.10
2023-04-27T21:13:50.373Z,17.03
2023-04-27T21:16:23.075Z,16.99
2023-04-27T21:18:55.391Z,16.93
2023-04-27T21:21:27.567Z,16.89
2023-04-27T21:24:07.344Z,16.85
2023-04-27T21:26:34.598Z,16.81
2023-04-27T21:29:08.476Z,16.78
2023-04-27T21:31:41.141Z,16.79
2023-04-27T21:34:13.791Z,16.76
2023-04-27T21:36:46.146Z,16.72
2023-04-27T21:39:18.810Z,16.72
2023-04-27T21:41:51.646Z,16.70
2023-04-27T21:44:24.300Z,16.65
2023-04-27T21:46:56.660Z,16.63
2023-04-27T21:49:28.875Z,16.56
2023-04-27T21:52:01.027Z,16.52
2023-04-27T21:54:33.322Z,16.46
2023-04-27T21:57:05.843Z,16.39
2023-04-27T21:59:38.069Z,16.36
2023-04-27T22:02:10.436Z,16.35
2023-04-27T22:04:43.603Z,16.27
2023-04-27T22:07:16.598Z,16.19
2023-04-27T22:09:49.316Z,16.19
2023-04-27T22:12:21.384Z,16.19
2023-04-27T22:14:53.846Z,16.15
2023-04-27T22:17:26.124Z,16.14
2023-04-27T22:19:59.202Z,16.11
2023-04-27T22:22:36.759Z,16.08
2023-04-27T22:25:09.821Z,16.10
2023-04-27T22:27:44.852Z,16.06
2023-04-27T22:30:16.388Z,15.99
2023-04-27T22:32:48.741Z,15.88
2023-04-27T22:37:59.093Z,15.69
2023-04-27T22:40:31.823Z,15.61
2023-04-27T22:43:04.657Z,15.55
2023-04-27T22:45:38.654Z,15.48
2023-04-27T22:48:10.687Z,15.40
2023-04-27T22:50:42.635Z,15.35
2023-04-27T22:53:14.920Z,15.29
2023-04-27T22:55:47.122Z,15.26
2023-04-27T22:58:19.493Z,15.23
2023-04-27T23:00:51.647Z,15.25
2023-04-27T23:03:24.649Z,15.13
2023-04-27T23:05:57.078Z,15.02
2023-04-27T23:08:29.649Z,15.02
2023-04-27T23:11:02.785Z,15.10
2023-04-27T23:13:35.535Z,15.04
2023-04-27T23:16:10.448Z,15.00
2023-04-27T23:18:42.731Z,14.94
2023-04-27T23:21:14.889Z,14.94
2023-04-27T23:23:46.831Z,14.91
2023-04-27T23:26:19.400Z,14.87
2023-04-27T23:28:52.080Z,14.92
2023-04-27T23:31:26.000Z,14.94
2023-04-27T23:33:58.362Z,14.97
2023-04-27T23:36:30.929Z,14.97
2023-04-27T23:39:02.861Z,14.97
2023-04-27T23:41:34.936Z,14.96
2023-04-27T23:44:07.125Z,14.84
2023-04-27T23:46:39.416Z,14.84
2023-04-27T23:49:11.629Z,14.89
2023-04-27T23:51:44.005Z,14.84
2023-04-27T23:54:16.587Z,14.77
2023-04-27T23:56:48.910Z,14.68
2023-04-27T23:59:21.762Z,14.70
